createdAt,value
2023-10-23T00:01:23.054Z,10.15
2023-10-23T00:03:50.330Z,9.32
2023-10-23T00:06:17.609Z,8.85
2023-10-23T00:08:44.620Z,8.43
2023-10-23T00:11:23.185Z,8.05
2023-10-23T00:13:50.180Z,7.57
2023-10-23T00:16:17.249Z,7.78
2023-10-23T00:18:44.204Z,7.93
2023-10-23T00:21:11.104Z,7.75
2023-10-23T00:23:38.043Z,7.78
2023-10-23T00:26:06.750Z,7.57
2023-10-23T00:28:34.383Z,7.40
2023-10-23T00:31:01.878Z,7.90
2023-10-23T00:33:29.404Z,7.70
2023-10-23T00:35:56.422Z,7.47
2023-10-23T00:38:23.668Z,7.38
2023-10-23T00:40:50.551Z,7.25
2023-10-23T00:43:22.507Z,6.88
2023-10-23T00:46:02.120Z,7.03
2023-10-23T00:48:29.556Z,7.03
2023-10-23T00:50:58.500Z,6.78
2023-10-23T00:53:27.593Z,5.93
2023-10-23T00:55:55.833Z,7.13
2023-10-23T00:58:28.184Z,7.47
2023-10-23T01:00:59.588Z,7.00
2023-10-23T01:03:27.341Z,7.18
2023-10-23T01:05:54.380Z,7.75
2023-10-23T01:08:21.769Z,7.35
2023-10-23T01:10:48.957Z,7.35
2023-10-23T01:13:16.131Z,7.82
2023-10-23T01:15:43.710Z,8.63
2023-10-23T01:18:11.919Z,8.70
2023-10-23T01:20:38.886Z,8.52
2023-10-23T01:23:05.977Z,7.68
2023-10-23T01:25:33.495Z,8.40
2023-10-23T01:28:00.475Z,8.75
2023-10-23T01:30:27.403Z,7.32
2023-10-23T01:32:54.396Z,8.20
2023-10-23T01:35:21.330Z,8.00
2023-10-23T01:37:48.832Z,8.38
2023-10-23T01:40:15.960Z,8.18
2023-10-23T01:42:43.914Z,8.95
2023-10-23T01:45:11.315Z,8.60
2023-10-23T01:47:38.912Z,8.65
2023-10-23T01:50:06.541Z,7.93
2023-10-23T01:52:33.581Z,7.97
2023-10-23T01:55:00.826Z,8.82
2023-10-23T01:57:28.903Z,8.25
2023-10-23T01:59:56.906Z,7.90
2023-10-23T02:02:23.912Z,8.63
2023-10-23T02:04:50.796Z,8.48
2023-10-23T02:07:17.742Z,8.00
2023-10-23T02:09:44.724Z,8.10
2023-10-23T02:12:11.732Z,8.32
2023-10-23T02:14:39.771Z,8.00
2023-10-23T02:17:06.901Z,8.68
2023-10-23T02:19:36.210Z,8.00
2023-10-23T02:22:03.309Z,8.73
2023-10-23T02:24:30.286Z,8.73
2023-10-23T02:26:57.639Z,9.02
2023-10-23T02:29:24.535Z,9.50
2023-10-23T02:31:51.606Z,9.00
2023-10-23T02:34:18.635Z,8.90
2023-10-23T02:36:45.628Z,9.82
2023-10-23T02:39:12.573Z,9.40
2023-10-23T02:41:39.741Z,9.98
2023-10-23T02:44:07.099Z,11.00
2023-10-23T02:46:39.463Z,10.70
2023-10-23T02:49:06.896Z,10.38
2023-10-23T02:51:33.874Z,10.45
2023-10-23T02:54:00.900Z,11.30
2023-10-23T02:56:27.800Z,10.77
2023-10-23T02:58:54.832Z,12.30
2023-10-23T03:01:24.908Z,11.93
2023-10-23T03:03:53.142Z,12.70
2023-10-23T03:06:20.312Z,12.52
2023-10-23T03:08:47.422Z,12.60
2023-10-23T03:11:14.322Z,12.55
2023-10-23T03:13:41.279Z,13.38
2023-10-23T03:16:08.541Z,11.95
2023-10-23T03:18:35.855Z,12.15
2023-10-23T03:21:03.541Z,12.27
2023-10-23T03:23:31.761Z,12.13
2023-10-23T03:25:59.247Z,12.60
2023-10-23T03:28:26.382Z,12.48
2023-10-23T03:30:53.532Z,11.25
2023-10-23T03:33:20.630Z,12.85
2023-10-23T03:35:47.894Z,12.60
2023-10-23T03:38:15.992Z,13.07
2023-10-23T03:40:53.215Z,12.73
2023-10-23T03:43:20.128Z,13.63
2023-10-23T03:45:47.061Z,13.52
2023-10-23T03:48:15.237Z,12.95
2023-10-23T03:50:42.155Z,13.75
2023-10-23T03:53:09.313Z,13.70
2023-10-23T03:55:39.506Z,13.63
2023-10-23T03:58:06.565Z,14.27
2023-10-23T04:00:33.718Z,13.50
2023-10-23T04:03:00.716Z,13.23
2023-10-23T04:05:27.618Z,13.95
2023-10-23T04:07:54.532Z,14.07
2023-10-23T04:10:21.506Z,14.02
2023-10-23T04:12:48.628Z,15.02
2023-10-23T04:15:15.541Z,14.82
2023-10-23T04:17:42.491Z,14.05
2023-10-23T04:20:09.556Z,14.48
2023-10-23T04:22:36.987Z,14.40
2023-10-23T04:25:04.228Z,14.48
2023-10-23T04:27:31.831Z,14.15
2023-10-23T04:30:00.986Z,14.32
2023-10-23T04:32:28.790Z,14.90
2023-10-23T04:34:55.746Z,14.48
2023-10-23T04:37:23.069Z,14.52
2023-10-23T04:39:50.028Z,13.98
2023-10-23T04:42:17.114Z,16.17
2023-10-23T04:44:44.022Z,14.75
2023-10-23T04:47:10.957Z,13.27
2023-10-23T04:49:37.977Z,14.48
2023-10-23T04:52:05.365Z,14.90
2023-10-23T04:54:32.419Z,13.77
2023-10-23T04:56:59.369Z,14.57
2023-10-23T04:59:26.250Z,14.52
2023-10-23T05:01:53.228Z,14.30
2023-10-23T05:04:20.321Z,14.68
2023-10-23T05:06:47.643Z,14.23
2023-10-23T05:09:14.499Z,14.13
2023-10-23T05:11:41.464Z,12.93
2023-10-23T05:14:08.358Z,13.30
2023-10-23T05:16:35.357Z,14.50
2023-10-23T05:19:02.422Z,14.02
2023-10-23T05:21:29.388Z,14.73
2023-10-23T05:23:56.251Z,15.48
2023-10-23T05:26:23.303Z,15.38
2023-10-23T05:28:52.678Z,17.33
2023-10-23T05:31:20.630Z,16.35
2023-10-23T05:33:47.600Z,14.30
2023-10-23T05:36:14.605Z,15.60
2023-10-23T05:38:41.474Z,17.08
2023-10-23T05:41:09.903Z,16.95
2023-10-23T05:43:37.446Z,16.95
2023-10-23T05:46:05.057Z,17.23
2023-10-23T05:48:32.453Z,17.40
2023-10-23T05:51:05.740Z,16.50
2023-10-23T05:53:33.365Z,15.65
2023-10-23T05:56:07.693Z,15.93
2023-10-23T05:58:35.594Z,14.43
2023-10-23T06:01:07.029Z,15.57
2023-10-23T06:03:35.141Z,15.52
2023-10-23T06:06:02.546Z,15.88
2023-10-23T06:08:29.450Z,15.60
2023-10-23T06:10:56.398Z,16.83
2023-10-23T06:13:23.412Z,15.80
2023-10-23T06:15:50.763Z,17.00
2023-10-23T06:18:17.810Z,16.73
2023-10-23T06:20:45.314Z,15.82
2023-10-23T06:23:12.389Z,16.83
2023-10-23T06:25:39.304Z,16.98
2023-10-23T06:28:06.388Z,15.80
2023-10-23T06:30:36.281Z,18.15
2023-10-23T06:33:04.008Z,18.15
2023-10-23T06:35:31.179Z,16.67
2023-10-23T06:37:58.174Z,15.95
2023-10-23T06:40:25.140Z,16.55
2023-10-23T06:42:52.033Z,15.35
2023-10-23T06:45:18.985Z,14.40
2023-10-23T06:47:51.441Z,15.95
2023-10-23T06:50:19.780Z,15.77
2023-10-23T06:52:46.835Z,15.52
2023-10-23T06:55:14.039Z,15.48
2023-10-23T06:57:40.999Z,15.27
2023-10-23T07:00:08.415Z,16.00
2023-10-23T07:02:35.408Z,15.85
2023-10-23T07:05:02.814Z,16.60
2023-10-23T07:07:32.624Z,18.00
2023-10-23T07:10:03.938Z,17.63
2023-10-23T07:12:30.772Z,16.83
2023-10-23T07:14:57.841Z,16.42
2023-10-23T07:17:25.081Z,16.63
2023-10-23T07:19:52.266Z,17.20
2023-10-23T07:22:19.184Z,16.92
2023-10-23T07:24:46.032Z,15.68
2023-10-23T07:27:16.362Z,15.68
2023-10-23T07:29:46.913Z,15.20
2023-10-23T07:32:13.818Z,16.05
2023-10-23T07:34:40.666Z,16.70
2023-10-23T07:37:07.627Z,15.65
2023-10-23T07:39:36.275Z,16.77
2023-10-23T07:42:04.181Z,15.55
2023-10-23T07:44:31.162Z,15.10
2023-10-23T07:46:58.251Z,16.70
2023-10-23T07:49:25.500Z,16.60
2023-10-23T07:51:54.180Z,16.70
2023-10-23T07:54:21.553Z,15.35
2023-10-23T07:56:48.677Z,15.75
2023-10-23T07:59:15.662Z,18.63
2023-10-23T08:01:42.726Z,16.95
2023-10-23T08:04:09.974Z,17.40
2023-10-23T08:06:37.212Z,16.98
2023-10-23T08:09:04.959Z,17.50
2023-10-23T08:11:31.996Z,19.20
2023-10-23T08:14:00.533Z,18.15
2023-10-23T08:16:27.697Z,18.50
2023-10-23T08:18:55.854Z,19.05
2023-10-23T08:21:24.280Z,17.75
2023-10-23T08:23:55.318Z,18.35
2023-10-23T08:26:22.652Z,18.73
2023-10-23T08:29:01.785Z,16.70
2023-10-23T08:31:38.546Z,16.92
2023-10-23T08:34:07.565Z,17.08
2023-10-23T08:36:35.216Z,16.60
2023-10-23T08:39:02.675Z,15.40
2023-10-23T08:41:30.676Z,14.93
2023-10-23T08:43:57.818Z,16.92
2023-10-23T08:46:33.833Z,15.25
2023-10-23T08:49:07.730Z,15.07
2023-10-23T08:51:36.647Z,14.57
2023-10-23T08:54:11.402Z,14.15
2023-10-23T08:56:41.997Z,14.30
2023-10-23T08:59:10.713Z,13.82
2023-10-23T09:01:38.941Z,13.73
2023-10-23T09:04:07.344Z,13.65
2023-10-23T09:06:36.824Z,12.48
2023-10-23T09:09:07.693Z,12.55
2023-10-23T09:11:49.188Z,11.82
2023-10-23T09:14:32.155Z,11.32
2023-10-23T09:17:05.100Z,12.07
2023-10-23T09:19:42.331Z,9.55
2023-10-23T09:22:09.817Z,9.55
2023-10-23T09:24:37.688Z,10.05
2023-10-23T09:27:04.880Z,9.75
2023-10-23T09:29:32.397Z,8.85
2023-10-23T09:32:00.164Z,8.75
2023-10-23T09:34:29.320Z,9.35
2023-10-23T09:36:57.070Z,9.13
2023-10-23T09:39:24.402Z,8.13
2023-10-23T09:41:52.013Z,7.93
2023-10-23T09:44:18.964Z,8.55
2023-10-23T09:46:49.251Z,7.88
2023-10-23T09:49:17.900Z,7.13
2023-10-23T09:51:49.951Z,7.30
2023-10-23T09:54:21.653Z,7.55
2023-10-23T09:56:55.611Z,7.43
2023-10-23T09:59:28.495Z,7.32
2023-10-23T10:02:00.505Z,6.55
2023-10-23T10:04:36.570Z,6.72
2023-10-23T10:07:12.437Z,6.20
2023-10-23T10:09:40.060Z,6.97
2023-10-23T10:12:08.264Z,6.20
2023-10-23T10:14:36.452Z,7.40
2023-10-23T10:17:05.736Z,6.78
2023-10-23T10:19:33.362Z,6.10
2023-10-23T10:22:14.845Z,5.50
2023-10-23T10:24:42.507Z,5.18
2023-10-23T10:27:10.446Z,4.75
2023-10-23T10:29:37.665Z,4.63
2023-10-23T10:32:13.779Z,5.47
2023-10-23T10:34:47.262Z,5.68
2023-10-23T10:39:48.469Z,5.65
2023-10-23T10:42:20.104Z,4.97
2023-10-23T10:44:58.451Z,5.50
2023-10-23T10:47:40.299Z,5.70
2023-10-23T10:50:07.874Z,5.65
2023-10-23T10:52:36.751Z,6.18
2023-10-23T10:55:10.765Z,6.35
2023-10-23T10:57:43.803Z,7.03
2023-10-23T11:00:12.783Z,7.05
2023-10-23T11:02:40.927Z,7.28
2023-10-23T11:05:12.944Z,6.47
2023-10-23T11:07:40.006Z,6.18
2023-10-23T11:10:07.880Z,5.05
2023-10-23T11:12:35.077Z,4.82
2023-10-23T11:15:02.044Z,4.85
2023-10-23T11:17:30.309Z,4.20
2023-10-23T11:19:57.772Z,4.13
2023-10-23T11:22:25.388Z,3.70
2023-10-23T11:24:52.564Z,3.72
2023-10-23T11:27:19.558Z,3.75
2023-10-23T11:29:49.880Z,3.35
2023-10-23T11:32:17.856Z,2.90
2023-10-23T11:34:49.003Z,3.65
2023-10-23T11:37:16.089Z,3.40
2023-10-23T11:39:43.681Z,3.20
2023-10-23T11:42:11.718Z,3.40
2023-10-23T11:44:38.813Z,2.92
2023-10-23T11:47:06.121Z,3.10
2023-10-23T11:49:33.548Z,3.45
2023-10-23T11:52:01.815Z,3.90
2023-10-23T11:54:29.586Z,3.97
2023-10-23T11:57:00.488Z,4.00
2023-10-23T11:59:28.194Z,3.03
2023-10-23T12:01:59.483Z,3.72
2023-10-23T12:04:26.860Z,3.13
2023-10-23T12:06:53.791Z,3.30
2023-10-23T12:09:20.804Z,3.33
2023-10-23T12:11:47.736Z,3.83
2023-10-23T12:14:14.663Z,4.95
2023-10-23T12:16:41.618Z,4.15
2023-10-23T12:19:11.146Z,4.18
2023-10-23T12:21:38.549Z,4.13
2023-10-23T12:24:07.720Z,3.83
2023-10-23T12:26:35.453Z,3.70
2023-10-23T12:29:06.206Z,4.28
2023-10-23T12:31:33.434Z,3.47
2023-10-23T12:34:20.425Z,4.00
2023-10-23T12:36:47.763Z,3.45
2023-10-23T12:39:14.748Z,3.53
2023-10-23T12:41:41.704Z,4.25
2023-10-23T12:44:08.680Z,3.70
2023-10-23T12:46:35.656Z,3.85
2023-10-23T12:49:03.177Z,3.40
2023-10-23T12:51:30.167Z,3.53
2023-10-23T12:53:57.084Z,3.40
2023-10-23T12:56:23.961Z,3.80
2023-10-23T12:58:50.877Z,3.95
2023-10-23T13:01:18.220Z,3.85
2023-10-23T13:03:45.200Z,3.08
2023-10-23T13:06:12.296Z,3.75
2023-10-23T13:08:40.647Z,3.75
2023-10-23T13:11:07.691Z,3.28
2023-10-23T13:13:35.012Z,3.30
2023-10-23T13:16:02.237Z,3.35
2023-10-23T13:18:30.549Z,3.30
2023-10-23T13:21:32.975Z,3.72
2023-10-23T13:23:46.938Z,3.45
2023-10-23T13:26:14.570Z,3.70
2023-10-23T13:28:41.684Z,3.22
2023-10-23T13:31:08.967Z,3.63
2023-10-23T13:33:36.311Z,3.10
2023-10-23T13:36:03.372Z,3.05
2023-10-23T13:38:31.274Z,3.38
2023-10-23T13:40:58.288Z,3.05
2023-10-23T13:43:26.457Z,2.90
2023-10-23T13:45:53.827Z,3.22
2023-10-23T13:48:20.953Z,3.38
2023-10-23T13:50:50.463Z,3.00
2023-10-23T13:53:18.878Z,3.67
2023-10-23T13:55:46.408Z,3.53
2023-10-23T13:58:13.690Z,3.92
2023-10-23T14:00:41.199Z,3.67
2023-10-23T14:03:08.951Z,3.50
2023-10-23T14:05:36.141Z,4.05
2023-10-23T14:08:03.208Z,3.92
2023-10-23T14:10:30.268Z,4.15
2023-10-23T14:12:57.888Z,3.85
2023-10-23T14:15:25.035Z,4.05
2023-10-23T14:17:52.112Z,3.55
2023-10-23T14:20:19.236Z,3.53
2023-10-23T14:22:46.874Z,4.22
2023-10-23T14:25:14.074Z,3.28
2023-10-23T14:27:42.306Z,3.28
2023-10-23T14:30:09.824Z,3.97
2023-10-23T14:32:37.720Z,3.40
2023-10-23T14:35:05.031Z,3.65
2023-10-23T14:37:32.228Z,3.97
2023-10-23T14:39:59.685Z,5.63
2023-10-23T14:42:26.936Z,7.72
2023-10-23T14:44:53.948Z,5.20
2023-10-23T14:47:22.279Z,4.30
2023-10-23T14:49:49.254Z,5.18
2023-10-23T14:52:16.323Z,4.43
2023-10-23T14:54:43.219Z,5.38
2023-10-23T14:57:10.226Z,5.18
2023-10-23T14:59:37.168Z,21.35
2023-10-23T15:02:04.442Z,14.55
2023-10-23T15:04:33.924Z,9.68
2023-10-23T15:07:02.527Z,8.60
2023-10-23T15:09:29.814Z,9.93
2023-10-23T15:11:56.786Z,9.60
2023-10-23T15:14:23.701Z,6.93
2023-10-23T15:16:50.864Z,7.15
2023-10-23T15:19:17.909Z,6.65
2023-10-23T15:21:44.928Z,5.30
2023-10-23T15:24:12.100Z,5.13
2023-10-23T15:26:39.324Z,5.07
2023-10-23T15:29:06.781Z,5.00
2023-10-23T15:31:33.835Z,6.03
2023-10-23T15:34:00.730Z,4.57
2023-10-23T15:36:28.435Z,5.82
2023-10-23T15:38:55.597Z,4.95
2023-10-23T15:41:22.661Z,5.43
2023-10-23T15:43:56.750Z,5.55
2023-10-23T15:46:23.816Z,5.68
2023-10-23T15:48:51.526Z,5.45
2023-10-23T15:51:18.447Z,5.88
2023-10-23T15:53:45.290Z,6.22
2023-10-23T15:56:12.289Z,6.60
2023-10-23T15:58:39.297Z,5.80
2023-10-23T16:01:06.597Z,7.35
2023-10-23T16:03:35.517Z,8.60
2023-10-23T16:06:05.079Z,8.18
2023-10-23T16:08:32.128Z,7.63
2023-10-23T16:11:00.737Z,8.88
2023-10-23T16:13:31.522Z,7.25
2023-10-23T16:15:59.165Z,8.73
2023-10-23T16:18:26.679Z,8.57
2023-10-23T16:20:53.704Z,9.57
2023-10-23T16:23:20.532Z,11.60
2023-10-23T16:25:47.583Z,10.30
2023-10-23T16:28:14.499Z,11.18
2023-10-23T16:30:42.314Z,12.65
2023-10-23T16:33:10.086Z,10.82
2023-10-23T16:35:37.832Z,16.92
2023-10-23T16:38:05.096Z,21.30
2023-10-23T16:40:34.941Z,11.75
2023-10-23T16:43:02.490Z,13.68
2023-10-23T16:45:29.995Z,11.18
2023-10-23T16:47:57.428Z,12.05
2023-10-23T16:50:25.414Z,10.82
2023-10-23T16:52:52.551Z,11.35
2023-10-23T16:55:19.892Z,13.73
2023-10-23T16:57:47.037Z,16.73
2023-10-23T17:00:16.474Z,12.95
2023-10-23T17:02:44.534Z,11.90
2023-10-23T17:05:13.603Z,12.15
2023-10-23T17:07:40.926Z,12.80
2023-10-23T17:10:08.594Z,15.05
2023-10-23T17:12:35.728Z,13.57
2023-10-23T17:15:04.162Z,12.95
2023-10-23T17:17:31.449Z,11.90
2023-10-23T17:19:59.104Z,17.08
2023-10-23T17:22:26.099Z,15.10
2023-10-23T17:24:53.076Z,27.63
2023-10-23T17:27:20.617Z,16.65
2023-10-23T17:29:47.584Z,18.40
2023-10-23T17:32:14.510Z,18.25
2023-10-23T17:34:41.593Z,17.38
2023-10-23T17:37:08.709Z,19.05
2023-10-23T17:39:35.787Z,17.48
2023-10-23T17:42:03.595Z,16.48
2023-10-23T17:44:31.420Z,18.17
2023-10-23T17:46:58.496Z,17.17
2023-10-23T17:49:25.644Z,16.10
2023-10-23T17:51:52.678Z,17.20
2023-10-23T17:54:19.595Z,16.50
2023-10-23T17:56:46.465Z,18.77
2023-10-23T17:59:13.371Z,17.83
2023-10-23T18:01:43.433Z,18.48
2023-10-23T18:04:12.392Z,18.88
2023-10-23T18:06:39.992Z,19.15
2023-10-23T18:09:07.773Z,21.13
2023-10-23T18:11:35.084Z,20.17
2023-10-23T18:14:02.334Z,21.05
2023-10-23T18:16:29.801Z,19.45
2023-10-23T18:18:57.140Z,21.13
2023-10-23T18:21:24.362Z,20.05
2023-10-23T18:23:52.425Z,21.50
2023-10-23T18:26:19.599Z,21.98
2023-10-23T18:28:46.937Z,23.08
2023-10-23T18:31:14.984Z,23.42
2023-10-23T18:33:42.236Z,23.48
2023-10-23T18:36:19.328Z,25.13
2023-10-23T18:38:47.600Z,25.13
2023-10-23T18:41:18.923Z,25.17
2023-10-23T18:43:46.508Z,25.15
2023-10-23T18:46:14.561Z,26.50
2023-10-23T18:48:42.414Z,26.55
2023-10-23T18:51:12.633Z,29.15
2023-10-23T18:53:41.504Z,27.10
2023-10-23T18:56:08.555Z,27.70
2023-10-23T18:58:35.723Z,27.80
2023-10-23T19:01:09.534Z,27.45
2023-10-23T19:03:37.284Z,28.93
2023-10-23T19:06:04.287Z,31.20
2023-10-23T19:08:33.840Z,28.17
2023-10-23T19:11:00.732Z,32.10
2023-10-23T19:13:27.773Z,30.35
2023-10-23T19:15:59.212Z,29.98
2023-10-23T19:18:30.210Z,32.15
2023-10-23T19:21:02.820Z,31.25
2023-10-23T19:23:30.193Z,27.25
2023-10-23T19:25:57.226Z,26.33
2023-10-23T19:28:24.365Z,26.48
2023-10-23T19:30:51.709Z,26.20
2023-10-23T19:33:19.047Z,26.88
2023-10-23T19:35:46.367Z,25.90
2023-10-23T19:38:13.650Z,26.75
2023-10-23T19:40:49.316Z,25.85
2023-10-23T19:43:17.651Z,32.10
2023-10-23T19:45:45.314Z,31.92
2023-10-23T19:48:13.480Z,27.50
2023-10-23T19:50:50.799Z,29.95
2023-10-23T19:53:18.675Z,27.90
2023-10-23T19:55:47.312Z,25.52
2023-10-23T19:58:16.919Z,25.52
2023-10-23T20:00:44.031Z,24.55
2023-10-23T20:03:11.480Z,24.02
2023-10-23T20:05:38.403Z,25.00
2023-10-23T20:08:05.780Z,24.50
2023-10-23T20:10:33.411Z,24.23
2023-10-23T20:13:01.719Z,24.58
2023-10-23T20:15:30.444Z,23.00
2023-10-23T20:17:57.581Z,22.80
2023-10-23T20:20:24.789Z,22.70
2023-10-23T20:22:51.756Z,22.55
2023-10-23T20:25:19.278Z,23.60
2023-10-23T20:27:46.283Z,24.27
2023-10-23T20:30:13.662Z,22.88
2023-10-23T20:32:40.840Z,20.95
2023-10-23T20:35:08.432Z,23.25
2023-10-23T20:37:35.776Z,20.73
2023-10-23T20:40:04.786Z,19.42
2023-10-23T20:42:37.220Z,19.75
2023-10-23T20:45:06.405Z,20.05
2023-10-23T20:47:34.547Z,19.92
2023-10-23T20:50:05.931Z,20.40
2023-10-23T20:52:33.416Z,17.73
2023-10-23T20:55:01.304Z,19.45
2023-10-23T20:57:28.522Z,18.08
2023-10-23T20:59:55.370Z,16.20
2023-10-23T21:02:22.397Z,15.70
2023-10-23T21:04:49.334Z,14.52
2023-10-23T21:07:16.323Z,14.27
2023-10-23T21:09:43.787Z,13.98
2023-10-23T21:12:10.863Z,13.45
2023-10-23T21:14:49.203Z,13.98
2023-10-23T21:17:17.938Z,14.25
2023-10-23T21:19:45.107Z,14.57
2023-10-23T21:22:12.188Z,15.27
2023-10-23T21:24:39.409Z,15.57
2023-10-23T21:27:06.377Z,15.98
2023-10-23T21:29:33.288Z,15.55
2023-10-23T21:32:02.934Z,15.70
2023-10-23T21:34:30.297Z,15.57
2023-10-23T21:36:57.677Z,17.85
2023-10-23T21:39:24.574Z,16.08
2023-10-23T21:41:51.837Z,15.65
2023-10-23T21:44:19.184Z,18.35
2023-10-23T21:46:46.303Z,19.23
2023-10-23T21:49:13.242Z,18.80
2023-10-23T21:51:41.259Z,19.40
2023-10-23T21:54:08.681Z,19.25
2023-10-23T21:57:19.496Z,21.35
2023-10-23T21:59:23.283Z,20.38
2023-10-23T22:01:53.610Z,19.73
2023-10-23T22:04:21.535Z,21.38
2023-10-23T22:06:48.910Z,21.63
2023-10-23T22:09:16.668Z,22.75
2023-10-23T22:11:44.466Z,21.98
2023-10-23T22:14:12.188Z,21.85
2023-10-23T22:16:39.304Z,22.88
2023-10-23T22:19:06.534Z,22.50
2023-10-23T22:21:33.741Z,24.55
2023-10-23T22:24:00.686Z,23.15
2023-10-23T22:26:27.659Z,23.35
2023-10-23T22:28:54.633Z,23.25
2023-10-23T22:31:21.630Z,23.50
2023-10-23T22:33:48.874Z,23.50
2023-10-23T22:36:16.057Z,23.67
2023-10-23T22:38:43.162Z,25.05
2023-10-23T22:41:10.193Z,26.30
2023-10-23T22:43:37.169Z,24.98
2023-10-23T22:46:04.378Z,25.83
2023-10-23T22:48:32.155Z,26.55
2023-10-23T22:50:59.580Z,26.23
2023-10-23T22:53:26.784Z,26.70
2023-10-23T22:55:55.676Z,28.02
2023-10-23T22:58:31.109Z,27.55
2023-10-23T23:03:26.374Z,27.83
2023-10-23T23:05:55.071Z,28.75
2023-10-23T23:08:22.672Z,29.50
2023-10-23T23:10:51.581Z,29.17
2023-10-23T23:13:18.729Z,29.38
2023-10-23T23:15:48.163Z,30.50
2023-10-23T23:18:19.971Z,29.08
2023-10-23T23:20:50.778Z,29.50
2023-10-23T23:23:17.828Z,29.92
2023-10-23T23:25:45.090Z,30.13
2023-10-23T23:28:12.081Z,31.20
2023-10-23T23:30:38.979Z,28.48
2023-10-23T23:33:06.108Z,29.40
2023-10-23T23:35:33.200Z,29.10
2023-10-23T23:38:00.703Z,30.65
2023-10-23T23:40:27.714Z,30.30
2023-10-23T23:42:55.127Z,30.33
2023-10-23T23:45:22.117Z,29.77
2023-10-23T23:47:49.121Z,29.08
2023-10-23T23:50:16.060Z,30.83
2023-10-23T23:52:43.043Z,31.13
2023-10-23T23:55:10.020Z,30.27
2023-10-23T23:57:37.002Z,30.98
